sensor_id;sensor_type;location;lat;lon;timestamp;pressure;altitude;pressure_sealevel;temperature;humidity
11053;BME280;55230;42.602;23.470;2023-02-28T00:01:17;93916.06;;;5.99;100.00
11053;BME280;55230;42.602;23.470;2023-02-28T00:03:44;93924.44;;;5.74;100.00
11053;BME280;55230;42.602;23.470;2023-02-28T00:06:12;93876.38;;;5.40;100.00
11053;BME280;55230;42.602;23.470;2023-02-28T00:08:39;93921.44;;;5.68;100.00
11053;BME280;55230;42.602;23.470;2023-02-28T00:11:08;93860.22;;;5.47;100.00
11053;BME280;55230;42.602;23.470;2023-02-28T00:13:37;93936.66;;;6.02;100.00
11053;BME280;55230;42.602;23.470;2023-02-28T00:16:06;93628.78;;;3.37;100.00
11053;BME280;55230;42.602;23.470;2023-02-28T00:18:34;93802.59;;;5.20;100.00
11053;BME280;55230;42.602;23.470;2023-02-28T00:21:01;93932.00;;;6.06;100.00
11053;BME280;55230;42.602;23.470;2023-02-28T00:23:29;93932.97;;;6.15;100.00
11053;BME280;55230;42.602;23.470;2023-02-28T00:25:56;93789.78;;;5.08;100.00
11053;BME280;55230;42.602;23.470;2023-02-28T00:28:23;93888.34;;;5.85;100.00
11053;BME280;55230;42.602;23.470;2023-02-28T00:30:50;93902.19;;;5.77;100.00
11053;BME280;55230;42.602;23.470;2023-02-28T00:33:17;93930.81;;;6.07;100.00
11053;BME280;55230;42.602;23.470;2023-02-28T00:35:43;93782.22;;;5.29;100.00
11053;BME280;55230;42.602;23.470;2023-02-28T00:38:11;93933.78;;;6.35;100.00
11053;BME280;55230;42.602;23.470;2023-02-28T00:40:39;93522.44;;;3.16;100.00
11053;BME280;55230;42.602;23.470;2023-02-28T00:43:06;93926.91;;;5.88;100.00
11053;BME280;55230;42.602;23.470;2023-02-28T00:45:33;93757.56;;;4.65;100.00
11053;BME280;55230;42.602;23.470;2023-02-28T00:48:00;93463.66;;;2.66;100.00
11053;BME280;55230;42.602;23.470;2023-02-28T00:50:26;93910.34;;;5.97;100.00
11053;BME280;55230;42.602;23.470;2023-02-28T00:52:53;93845.22;;;5.30;100.00
11053;BME280;55230;42.602;23.470;2023-02-28T00:55:20;93909.16;;;5.98;100.00
11053;BME280;55230;42.602;23.470;2023-02-28T00:57:48;93755.22;;;4.70;100.00
11053;BME280;55230;42.602;23.470;2023-02-28T01:00:15;93864.53;;;5.41;100.00
11053;BME280;55230;42.602;23.470;2023-02-28T01:02:42;93976.22;;;5.60;100.00
11053;BME280;55230;42.602;23.470;2023-02-28T01:05:09;93906.50;;;5.71;100.00
11053;BME280;55230;42.602;23.470;2023-02-28T01:07:36;93909.47;;;5.76;100.00
11053;BME280;55230;42.602;23.470;2023-02-28T01:10:04;93756.16;;;4.57;100.00
11053;BME280;55230;42.602;23.470;2023-02-28T01:12:31;93822.22;;;4.83;100.00
11053;BME280;55230;42.602;23.470;2023-02-28T01:14:59;93905.03;;;5.13;100.00
11053;BME280;55230;42.602;23.470;2023-02-28T01:17:26;93950.34;;;5.24;100.00
11053;BME280;55230;42.602;23.470;2023-02-28T01:19:53;93909.81;;;4.99;100.00
11053;BME280;55230;42.602;23.470;2023-02-28T01:22:20;93880.19;;;4.86;100.00
11053;BME280;55230;42.602;23.470;2023-02-28T01:24:47;93872.97;;;4.83;100.00
11053;BME280;55230;42.602;23.470;2023-02-28T01:27:14;93781.66;;;4.31;100.00
11053;BME280;55230;42.602;23.470;2023-02-28T01:29:40;93767.09;;;4.36;100.00
11053;BME280;55230;42.602;23.470;2023-02-28T01:32:09;93839.75;;;4.84;100.00
11053;BME280;55230;42.602;23.470;2023-02-28T01:34:35;93903.97;;;5.07;100.00
11053;BME280;55230;42.602;23.470;2023-02-28T01:37:02;93807.59;;;4.61;100.00
11053;BME280;55230;42.602;23.470;2023-02-28T01:39:29;93619.31;;;2.95;100.00
11053;BME280;55230;42.602;23.470;2023-02-28T01:41:56;93817.13;;;4.62;100.00
11053;BME280;55230;42.602;23.470;2023-02-28T01:45:04;93825.78;;;4.39;100.00
11053;BME280;55230;42.602;23.470;2023-02-28T01:47:36;93916.06;;;4.85;100.00
11053;BME280;55230;42.602;23.470;2023-02-28T01:50:07;93912.16;;;4.93;100.00
11053;BME280;55230;42.602;23.470;2023-02-28T01:52:36;93863.22;;;4.66;100.00
11053;BME280;55230;42.602;23.470;2023-02-28T01:55:07;93893.78;;;4.65;100.00
11053;BME280;55230;42.602;23.470;2023-02-28T01:57:39;93916.56;;;4.73;100.00
11053;BME280;55230;42.602;23.470;2023-02-28T02:00:09;93917.59;;;4.86;100.00
11053;BME280;55230;42.602;23.470;2023-02-28T02:02:42;93925.13;;;4.95;100.00
11053;BME280;55230;42.602;23.470;2023-02-28T02:05:12;93857.06;;;4.39;100.00
11053;BME280;55230;42.602;23.470;2023-02-28T02:07:41;93921.47;;;4.78;100.00
11053;BME280;55230;42.602;23.470;2023-02-28T02:10:14;93928.44;;;4.72;100.00
11053;BME280;55230;42.602;23.470;2023-02-28T02:13:05;93871.69;;;4.27;100.00
11053;BME280;55230;42.602;23.470;2023-02-28T02:15:37;93932.69;;;4.66;100.00
11053;BME280;55230;42.602;23.470;2023-02-28T02:18:15;93857.97;;;4.25;100.00
11053;BME280;55230;42.602;23.470;2023-02-28T02:24:24;93920.75;;;4.78;100.00
11053;BME280;55230;42.602;23.470;2023-02-28T02:27:08;93845.00;;;4.27;100.00
11053;BME280;55230;42.602;23.470;2023-02-28T02:29:51;93838.16;;;4.23;100.00
11053;BME280;55230;42.602;23.470;2023-02-28T02:32:40;93896.03;;;4.33;100.00
11053;BME280;55230;42.602;23.470;2023-02-28T02:35:15;93913.56;;;4.34;100.00
11053;BME280;55230;42.602;23.470;2023-02-28T02:37:47;93934.25;;;4.23;100.00
11053;BME280;55230;42.602;23.470;2023-02-28T02:40:19;93862.69;;;4.11;100.00
11053;BME280;55230;42.602;23.470;2023-02-28T02:42:51;93796.16;;;3.56;100.00
11053;BME280;55230;42.602;23.470;2023-02-28T02:45:25;93700.31;;;2.54;100.00
11053;BME280;55230;42.602;23.470;2023-02-28T02:47:53;93852.44;;;3.65;100.00
11053;BME280;55230;42.602;23.470;2023-02-28T02:50:26;93888.41;;;3.46;100.00
11053;BME280;55230;42.602;23.470;2023-02-28T02:52:58;93793.53;;;3.01;100.00
11053;BME280;55230;42.602;23.470;2023-02-28T02:55:27;93937.84;;;4.06;100.00
11053;BME280;55230;42.602;23.470;2023-02-28T02:57:58;93952.66;;;4.14;100.00
11053;BME280;55230;42.602;23.470;2023-02-28T03:00:30;93817.63;;;3.38;100.00
11053;BME280;55230;42.602;23.470;2023-02-28T03:03:01;93813.09;;;3.32;100.00
11053;BME280;55230;42.602;23.470;2023-02-28T03:05:33;93834.09;;;3.74;100.00
11053;BME280;55230;42.602;23.470;2023-02-28T03:08:03;93826.41;;;3.80;100.00
11053;BME280;55230;42.602;23.470;2023-02-28T03:10:37;93714.28;;;3.12;100.00
11053;BME280;55230;42.602;23.470;2023-02-28T03:16:32;93942.00;;;4.88;100.00
11053;BME280;55230;42.602;23.470;2023-02-28T03:19:09;93965.34;;;5.14;100.00
11053;BME280;55230;42.602;23.470;2023-02-28T03:21:47;93944.63;;;4.92;100.00
11053;BME280;55230;42.602;23.470;2023-02-28T03:24:19;93975.97;;;5.18;100.00
11053;BME280;55230;42.602;23.470;2023-02-28T03:26:52;93709.44;;;3.44;100.00
11053;BME280;55230;42.602;23.470;2023-02-28T03:29:23;93358.31;;;1.16;100.00
11053;BME280;55230;42.602;23.470;2023-02-28T03:31:59;93962.06;;;4.66;100.00
11053;BME280;55230;42.602;23.470;2023-02-28T03:34:32;93966.56;;;4.76;100.00
11053;BME280;55230;42.602;23.470;2023-02-28T03:37:04;93959.09;;;4.60;100.00
11053;BME280;55230;42.602;23.470;2023-02-28T03:39:36;93976.81;;;4.81;100.00
11053;BME280;55230;42.602;23.470;2023-02-28T03:42:07;93879.19;;;3.99;100.00
11053;BME280;55230;42.602;23.470;2023-02-28T03:44:39;93972.41;;;4.64;100.00
11053;BME280;55230;42.602;23.470;2023-02-28T03:47:10;93991.53;;;4.59;100.00
11053;BME280;55230;42.602;23.470;2023-02-28T03:49:42;93970.00;;;4.36;100.00
11053;BME280;55230;42.602;23.470;2023-02-28T03:52:12;93859.41;;;3.52;100.00
11053;BME280;55230;42.602;23.470;2023-02-28T03:54:43;93965.66;;;4.08;100.00
11053;BME280;55230;42.602;23.470;2023-02-28T03:57:15;93869.09;;;3.28;100.00
11053;BME280;55230;42.602;23.470;2023-02-28T03:59:47;93983.63;;;4.01;100.00
11053;BME280;55230;42.602;23.470;2023-02-28T04:02:16;93988.53;;;4.06;100.00
11053;BME280;55230;42.602;23.470;2023-02-28T04:04:44;93994.00;;;3.92;100.00
11053;BME280;55230;42.602;23.470;2023-02-28T04:07:15;93678.59;;;1.90;100.00
11053;BME280;55230;42.602;23.470;2023-02-28T04:09:42;93897.47;;;3.52;100.00
11053;BME280;55230;42.602;23.470;2023-02-28T04:12:09;93913.47;;;3.52;100.00
11053;BME280;55230;42.602;23.470;2023-02-28T04:14:36;93919.56;;;3.53;100.00
11053;BME280;55230;42.602;23.470;2023-02-28T04:17:03;93993.47;;;3.52;100.00
11053;BME280;55230;42.602;23.470;2023-02-28T04:19:30;93894.81;;;2.94;100.00
11053;BME280;55230;42.602;23.470;2023-02-28T04:21:57;93847.72;;;2.77;100.00
11053;BME280;55230;42.602;23.470;2023-02-28T04:24:26;93678.69;;;1.76;100.00
11053;BME280;55230;42.602;23.470;2023-02-28T04:26:55;93903.78;;;3.21;100.00
11053;BME280;55230;42.602;23.470;2023-02-28T04:29:24;93968.69;;;3.52;100.00
11053;BME280;55230;42.602;23.470;2023-02-28T04:31:55;93340.84;;;-0.82;100.00
11053;BME280;55230;42.602;23.470;2023-02-28T04:34:23;93441.06;;;-0.59;100.00
11053;BME280;55230;42.602;23.470;2023-02-28T04:36:51;93273.13;;;-1.71;100.00
11053;BME280;55230;42.602;23.470;2023-02-28T04:39:25;93993.50;;;3.45;100.00
11053;BME280;55230;42.602;23.470;2023-02-28T04:42:00;93982.41;;;3.50;100.00
11053;BME280;55230;42.602;23.470;2023-02-28T04:44:28;93989.56;;;3.68;100.00
11053;BME280;55230;42.602;23.470;2023-02-28T04:46:56;93995.63;;;3.75;100.00
11053;BME280;55230;42.602;23.470;2023-02-28T04:49:23;93320.78;;;-1.29;100.00
11053;BME280;55230;42.602;23.470;2023-02-28T04:51:50;94006.59;;;3.88;100.00
11053;BME280;55230;42.602;23.470;2023-02-28T05:09:59;93607.94;;;1.96;100.00
11053;BME280;55230;42.602;23.470;2023-02-28T05:12:26;94024.66;;;5.02;100.00
11053;BME280;55230;42.602;23.470;2023-02-28T05:14:54;93547.84;;;2.05;100.00
11053;BME280;55230;42.602;23.470;2023-02-28T05:53:34;94128.94;;;4.99;100.00
11053;BME280;55230;42.602;23.470;2023-02-28T05:56:02;93510.94;;;1.60;100.00
11053;BME280;55230;42.602;23.470;2023-02-28T05:58:29;93713.06;;;2.76;100.00
11053;BME280;55230;42.602;23.470;2023-02-28T06:00:57;94036.28;;;5.22;100.00
11053;BME280;55230;42.602;23.470;2023-02-28T06:03:25;94108.59;;;5.45;100.00
11053;BME280;55230;42.602;23.470;2023-02-28T06:05:52;93628.44;;;2.57;100.00
11053;BME280;55230;42.602;23.470;2023-02-28T06:08:19;94057.66;;;5.22;100.00
11053;BME280;55230;42.602;23.470;2023-02-28T06:10:47;94069.16;;;5.87;100.00
11053;BME280;55230;42.602;23.470;2023-02-28T06:13:14;94069.50;;;5.88;100.00
11053;BME280;55230;42.602;23.470;2023-02-28T06:15:41;93975.84;;;5.28;100.00
11053;BME280;55230;42.602;23.470;2023-02-28T06:18:08;93934.97;;;5.01;100.00
11053;BME280;55230;42.602;23.470;2023-02-28T06:20:35;93767.16;;;4.32;100.00
11053;BME280;55230;42.602;23.470;2023-02-28T06:23:03;93906.59;;;5.37;100.00
11053;BME280;55230;42.602;23.470;2023-02-28T06:38:25;93984.56;;;5.66;100.00
11053;BME280;55230;42.602;23.470;2023-02-28T06:40:55;94074.88;;;6.15;100.00
11053;BME280;55230;42.602;23.470;2023-02-28T06:43:23;93963.69;;;5.24;100.00
11053;BME280;55230;42.602;23.470;2023-02-28T06:45:54;94067.34;;;6.07;100.00
11053;BME280;55230;42.602;23.470;2023-02-28T06:48:21;93957.59;;;5.53;100.00
11053;BME280;55230;42.602;23.470;2023-02-28T06:50:47;93692.41;;;3.31;100.00
11053;BME280;55230;42.602;23.470;2023-02-28T06:53:14;93608.88;;;2.74;100.00
11053;BME280;55230;42.602;23.470;2023-02-28T06:55:43;94135.97;;;6.24;100.00
11053;BME280;55230;42.602;23.470;2023-02-28T06:58:09;94079.31;;;6.25;100.00
11053;BME280;55230;42.602;23.470;2023-02-28T07:00:41;94074.00;;;6.22;100.00
11053;BME280;55230;42.602;23.470;2023-02-28T07:03:07;94075.66;;;6.16;100.00
11053;BME280;55230;42.602;23.470;2023-02-28T07:05:34;94086.91;;;6.57;100.00
11053;BME280;55230;42.602;23.470;2023-02-28T07:08:02;94044.06;;;6.04;100.00
11053;BME280;55230;42.602;23.470;2023-02-28T07:10:30;94019.63;;;5.71;100.00
11053;BME280;55230;42.602;23.470;2023-02-28T07:12:58;94089.44;;;6.14;100.00
11053;BME280;55230;42.602;23.470;2023-02-28T07:15:25;94052.84;;;6.04;100.00
11053;BME280;55230;42.602;23.470;2023-02-28T07:17:52;94020.91;;;6.17;100.00
11053;BME280;55230;42.602;23.470;2023-02-28T07:20:19;94076.28;;;6.50;100.00
11053;BME280;55230;42.602;23.470;2023-02-28T07:22:46;94017.94;;;6.38;100.00
11053;BME280;55230;42.602;23.470;2023-02-28T07:25:20;94079.50;;;6.87;100.00
11053;BME280;55230;42.602;23.470;2023-02-28T07:27:47;94010.88;;;6.24;100.00
11053;BME280;55230;42.602;23.470;2023-02-28T07:30:16;94076.88;;;6.84;100.00
11053;BME280;55230;42.602;23.470;2023-02-28T07:32:43;93958.47;;;6.23;100.00
11053;BME280;55230;42.602;23.470;2023-02-28T07:35:10;93835.78;;;5.22;100.00
11053;BME280;55230;42.602;23.470;2023-02-28T07:37:37;94071.66;;;7.20;100.00
11053;BME280;55230;42.602;23.470;2023-02-28T07:40:13;94106.16;;;7.41;100.00
11053;BME280;55230;42.602;23.470;2023-02-28T07:42:40;94093.72;;;7.50;100.00
11053;BME280;55230;42.602;23.470;2023-02-28T07:45:09;93982.81;;;6.98;100.00
11053;BME280;55230;42.602;23.470;2023-02-28T07:47:39;93868.09;;;5.84;100.00
11053;BME280;55230;42.602;23.470;2023-02-28T07:50:08;93806.94;;;5.60;100.00
11053;BME280;55230;42.602;23.470;2023-02-28T07:52:36;93739.22;;;5.43;100.00
11053;BME280;55230;42.602;23.470;2023-02-28T07:55:03;94029.56;;;7.75;100.00
11053;BME280;55230;42.602;23.470;2023-02-28T07:57:31;94012.53;;;7.46;100.00
11053;BME280;55230;42.602;23.470;2023-02-28T07:59:59;94043.13;;;7.68;100.00
11053;BME280;55230;42.602;23.470;2023-02-28T08:02:26;93856.31;;;6.25;100.00
11053;BME280;55230;42.602;23.470;2023-02-28T08:04:55;93982.22;;;7.65;100.00
11053;BME280;55230;42.602;23.470;2023-02-28T08:07:22;94063.03;;;8.42;100.00
11053;BME280;55230;42.602;23.470;2023-02-28T08:09:49;94020.53;;;8.37;100.00
11053;BME280;55230;42.602;23.470;2023-02-28T08:12:16;93917.16;;;7.77;100.00
11053;BME280;55230;42.602;23.470;2023-02-28T08:14:43;94085.41;;;9.03;100.00
11053;BME280;55230;42.602;23.470;2023-02-28T08:17:10;94071.56;;;8.73;100.00
11053;BME280;55230;42.602;23.470;2023-02-28T08:19:37;93880.28;;;7.46;100.00
11053;BME280;55230;42.602;23.470;2023-02-28T08:22:06;94076.47;;;9.06;100.00
11053;BME280;55230;42.602;23.470;2023-02-28T08:24:33;93968.84;;;7.97;100.00
11053;BME280;55230;42.602;23.470;2023-02-28T08:27:00;94038.44;;;8.60;100.00
11053;BME280;55230;42.602;23.470;2023-02-28T08:29:27;94057.09;;;8.35;100.00
11053;BME280;55230;42.602;23.470;2023-02-28T08:31:55;94030.53;;;8.69;100.00
11053;BME280;55230;42.602;23.470;2023-02-28T08:34:24;93886.13;;;7.92;100.00
11053;BME280;55230;42.602;23.470;2023-02-28T08:36:51;93955.53;;;8.42;100.00
11053;BME280;55230;42.602;23.470;2023-02-28T08:39:19;94031.78;;;9.25;100.00
11053;BME280;55230;42.602;23.470;2023-02-28T08:41:46;94062.56;;;9.40;100.00
11053;BME280;55230;42.602;23.470;2023-02-28T08:44:13;93914.94;;;8.69;100.00
11053;BME280;55230;42.602;23.470;2023-02-28T08:46:40;94083.34;;;10.09;100.00
11053;BME280;55230;42.602;23.470;2023-02-28T08:49:07;94060.22;;;9.96;100.00
11053;BME280;55230;42.602;23.470;2023-02-28T08:51:34;93515.03;;;6.45;100.00
11053;BME280;55230;42.602;23.470;2023-02-28T08:54:01;94081.38;;;9.97;100.00
11053;BME280;55230;42.602;23.470;2023-02-28T08:56:30;94106.31;;;10.14;100.00
11053;BME280;55230;42.602;23.470;2023-02-28T08:58:57;94014.34;;;9.46;100.00
11053;BME280;55230;42.602;23.470;2023-02-28T09:01:26;94093.81;;;10.32;100.00
11053;BME280;55230;42.602;23.470;2023-02-28T09:03:54;94067.38;;;10.02;100.00
11053;BME280;55230;42.602;23.470;2023-02-28T09:06:23;94050.91;;;10.13;100.00
11053;BME280;55230;42.602;23.470;2023-02-28T09:08:51;93665.19;;;6.70;100.00
11053;BME280;55230;42.602;23.470;2023-02-28T09:11:18;94088.94;;;10.15;100.00
11053;BME280;55230;42.602;23.470;2023-02-28T09:13:47;93950.22;;;9.28;100.00
11053;BME280;55230;42.602;23.470;2023-02-28T09:16:15;94086.16;;;10.18;100.00
11053;BME280;55230;42.602;23.470;2023-02-28T09:18:43;94035.38;;;9.63;100.00
11053;BME280;55230;42.602;23.470;2023-02-28T09:21:12;94093.69;;;10.23;100.00
11053;BME280;55230;42.602;23.470;2023-02-28T09:23:40;93792.34;;;8.30;100.00
11053;BME280;55230;42.602;23.470;2023-02-28T09:26:07;93944.03;;;9.15;100.00
11053;BME280;55230;42.602;23.470;2023-02-28T09:28:34;94106.88;;;10.21;100.00
11053;BME280;55230;42.602;23.470;2023-02-28T09:31:03;94015.69;;;9.66;100.00
11053;BME280;55230;42.602;23.470;2023-02-28T09:33:30;93997.47;;;9.58;100.00
11053;BME280;55230;42.602;23.470;2023-02-28T09:35:58;94098.69;;;10.37;100.00
11053;BME280;55230;42.602;23.470;2023-02-28T09:38:26;94154.13;;;10.38;100.00
11053;BME280;55230;42.602;23.470;2023-02-28T09:40:55;94114.22;;;10.33;100.00
11053;BME280;55230;42.602;23.470;2023-02-28T09:43:25;94023.91;;;9.88;100.00
11053;BME280;55230;42.602;23.470;2023-02-28T09:45:58;94101.41;;;10.50;100.00
11053;BME280;55230;42.602;23.470;2023-02-28T09:48:32;94030.69;;;9.92;100.00
11053;BME280;55230;42.602;23.470;2023-02-28T09:51:04;93919.72;;;9.06;100.00
11053;BME280;55230;42.602;23.470;2023-02-28T09:53:34;94094.91;;;10.47;100.00
11053;BME280;55230;42.602;23.470;2023-02-28T09:56:03;94108.72;;;10.37;100.00
11053;BME280;55230;42.602;23.470;2023-02-28T09:58:38;94087.47;;;10.52;100.00
11053;BME280;55230;42.602;23.470;2023-02-28T10:01:12;93549.22;;;6.86;100.00
11053;BME280;55230;42.602;23.470;2023-02-28T10:03:51;93717.50;;;7.87;100.00
11053;BME280;55230;42.602;23.470;2023-02-28T10:06:26;94004.47;;;10.21;100.00
11053;BME280;55230;42.602;23.470;2023-02-28T10:08:58;94087.00;;;10.91;100.00
11053;BME280;55230;42.602;23.470;2023-02-28T10:11:28;94041.97;;;10.54;100.00
11053;BME280;55230;42.602;23.470;2023-02-28T10:13:59;94054.25;;;10.55;100.00
11053;BME280;55230;42.602;23.470;2023-02-28T10:16:34;93838.59;;;9.07;100.00
11053;BME280;55230;42.602;23.470;2023-02-28T10:19:06;94048.41;;;10.56;100.00
11053;BME280;55230;42.602;23.470;2023-02-28T10:21:41;94106.03;;;10.75;100.00
11053;BME280;55230;42.602;23.470;2023-02-28T10:24:19;94087.38;;;10.80;100.00
11053;BME280;55230;42.602;23.470;2023-02-28T10:26:47;94081.44;;;10.60;100.00
11053;BME280;55230;42.602;23.470;2023-02-28T10:29:15;94069.78;;;10.76;100.00
11053;BME280;55230;42.602;23.470;2023-02-28T10:31:42;94076.03;;;10.85;100.00
11053;BME280;55230;42.602;23.470;2023-02-28T10:34:12;94052.53;;;10.61;100.00
11053;BME280;55230;42.602;23.470;2023-02-28T10:36:39;94009.06;;;10.59;100.00
11053;BME280;55230;42.602;23.470;2023-02-28T10:39:36;94041.13;;;10.31;100.00
11053;BME280;55230;42.602;23.470;2023-02-28T10:42:03;94043.84;;;9.90;100.00
11053;BME280;55230;42.602;23.470;2023-02-28T10:44:30;94031.00;;;9.82;100.00
11053;BME280;55230;42.602;23.470;2023-02-28T10:46:58;94055.97;;;9.70;100.00
11053;BME280;55230;42.602;23.470;2023-02-28T10:49:27;94045.53;;;9.84;100.00
11053;BME280;55230;42.602;23.470;2023-02-28T10:51:56;94000.63;;;9.81;100.00
11053;BME280;55230;42.602;23.470;2023-02-28T10:54:28;93940.06;;;9.86;100.00
11053;BME280;55230;42.602;23.470;2023-02-28T10:57:16;94034.53;;;10.58;100.00
11053;BME280;55230;42.602;23.470;2023-02-28T10:59:44;94041.75;;;10.61;100.00
11053;BME280;55230;42.602;23.470;2023-02-28T11:02:32;93977.59;;;10.30;100.00
11053;BME280;55230;42.602;23.470;2023-02-28T11:05:01;93914.09;;;10.04;100.00
11053;BME280;55230;42.602;23.470;2023-02-28T11:07:28;94054.38;;;11.10;100.00
11053;BME280;55230;42.602;23.470;2023-02-28T11:09:57;93940.53;;;10.69;100.00
11053;BME280;55230;42.602;23.470;2023-02-28T11:12:26;93997.56;;;10.92;100.00
11053;BME280;55230;42.602;23.470;2023-02-28T11:14:57;93985.03;;;10.86;100.00
11053;BME280;55230;42.602;23.470;2023-02-28T11:17:27;93827.06;;;9.82;100.00
11053;BME280;55230;42.602;23.470;2023-02-28T11:19:57;93841.06;;;9.90;100.00
11053;BME280;55230;42.602;23.470;2023-02-28T11:22:31;93965.22;;;10.20;100.00
11053;BME280;55230;42.602;23.470;2023-02-28T11:25:06;94018.97;;;10.74;100.00
11053;BME280;55230;42.602;23.470;2023-02-28T11:27:44;93819.69;;;8.82;100.00
11053;BME280;55230;42.602;23.470;2023-02-28T11:30:31;94013.94;;;10.38;100.00
11053;BME280;55230;42.602;23.470;2023-02-28T11:32:59;93903.88;;;9.87;100.00
11053;BME280;55230;42.602;23.470;2023-02-28T11:35:30;93943.66;;;10.20;100.00
11053;BME280;55230;42.602;23.470;2023-02-28T11:38:02;94009.84;;;10.21;100.00
11053;BME280;55230;42.602;23.470;2023-02-28T11:40:36;94007.09;;;9.96;100.00
11053;BME280;55230;42.602;23.470;2023-02-28T11:43:16;94043.13;;;10.02;100.00
11053;BME280;55230;42.602;23.470;2023-02-28T11:45:59;93986.22;;;10.00;100.00
11053;BME280;55230;42.602;23.470;2023-02-28T11:48:34;93958.66;;;10.09;100.00
11053;BME280;55230;42.602;23.470;2023-02-28T11:51:13;93627.94;;;7.81;100.00
11053;BME280;55230;42.602;23.470;2023-02-28T11:54:08;93905.19;;;9.70;100.00
11053;BME280;55230;42.602;23.470;2023-02-28T11:56:43;93961.00;;;9.82;100.00
11053;BME280;55230;42.602;23.470;2023-02-28T12:02:06;93920.69;;;10.03;100.00
11053;BME280;55230;42.602;23.470;2023-02-28T12:04:52;94003.69;;;10.93;100.00
11053;BME280;55230;42.602;23.470;2023-02-28T12:07:25;93830.50;;;8.95;100.00
11053;BME280;55230;42.602;23.470;2023-02-28T12:10:06;93934.91;;;9.79;100.00
11053;BME280;55230;42.602;23.470;2023-02-28T12:12:47;93996.91;;;10.41;100.00
11053;BME280;55230;42.602;23.470;2023-02-28T12:15:27;93660.41;;;7.99;100.00
11053;BME280;55230;42.602;23.470;2023-02-28T12:18:08;93996.88;;;10.16;100.00
11053;BME280;55230;42.602;23.470;2023-02-28T12:20:44;94017.97;;;9.93;100.00
11053;BME280;55230;42.602;23.470;2023-02-28T12:23:32;93986.44;;;10.18;100.00
11053;BME280;55230;42.602;23.470;2023-02-28T12:26:16;93988.91;;;10.25;100.00
11053;BME280;55230;42.602;23.470;2023-02-28T12:28:49;93992.09;;;10.71;100.00
11053;BME280;55230;42.602;23.470;2023-02-28T12:31:20;93727.63;;;8.91;100.00
11053;BME280;55230;42.602;23.470;2023-02-28T12:33:51;93626.63;;;8.27;100.00
11053;BME280;55230;42.602;23.470;2023-02-28T12:36:20;93721.13;;;9.51;100.00
11053;BME280;55230;42.602;23.470;2023-02-28T12:38:53;94007.63;;;11.69;97.87
11053;BME280;55230;42.602;23.470;2023-02-28T12:41:28;93836.97;;;10.88;96.13
11053;BME280;55230;42.602;23.470;2023-02-28T12:44:00;94007.41;;;11.42;95.85
11053;BME280;55230;42.602;23.470;2023-02-28T12:46:32;93992.31;;;11.10;95.76
11053;BME280;55230;42.602;23.470;2023-02-28T12:49:04;93926.31;;;10.68;97.67
11053;BME280;55230;42.602;23.470;2023-02-28T12:51:34;93631.50;;;8.57;99.72
11053;BME280;55230;42.602;23.470;2023-02-28T12:54:10;93905.03;;;10.23;98.98
11053;BME280;55230;42.602;23.470;2023-02-28T12:56:45;93941.50;;;10.15;100.00
11053;BME280;55230;42.602;23.470;2023-02-28T12:59:23;93916.78;;;10.04;100.00
11053;BME280;55230;42.602;23.470;2023-02-28T13:02:09;93950.09;;;10.35;100.00
11053;BME280;55230;42.602;23.470;2023-02-28T13:10:47;93963.44;;;10.98;99.82
11053;BME280;55230;42.602;23.470;2023-02-28T13:13:18;93937.56;;;10.88;98.25
11053;BME280;55230;42.602;23.470;2023-02-28T13:16:03;93990.25;;;11.14;98.45
11053;BME280;55230;42.602;23.470;2023-02-28T13:18:34;93981.00;;;11.03;99.74
11053;BME280;55230;42.602;23.470;2023-02-28T13:21:03;93725.28;;;8.93;99.66
11053;BME280;55230;42.602;23.470;2023-02-28T13:23:41;93916.44;;;10.53;99.84
11053;BME280;55230;42.602;23.470;2023-02-28T13:29:31;93987.84;;;10.82;100.00
11053;BME280;55230;42.602;23.470;2023-02-28T13:32:32;93989.59;;;10.89;99.99
11053;BME280;55230;42.602;23.470;2023-02-28T13:35:35;93914.44;;;10.31;99.76
11053;BME280;55230;42.602;23.470;2023-02-28T13:38:32;93933.91;;;10.35;100.00
11053;BME280;55230;42.602;23.470;2023-02-28T13:44:01;93979.50;;;10.55;100.00
11053;BME280;55230;42.602;23.470;2023-02-28T13:46:30;93779.72;;;9.09;100.00
11053;BME280;55230;42.602;23.470;2023-02-28T13:49:18;93969.50;;;10.30;100.00
11053;BME280;55230;42.602;23.470;2023-02-28T13:51:46;93964.34;;;10.23;100.00
11053;BME280;55230;42.602;23.470;2023-02-28T13:54:21;93962.19;;;10.18;100.00
11053;BME280;55230;42.602;23.470;2023-02-28T13:56:57;93928.97;;;9.71;100.00
11053;BME280;55230;42.602;23.470;2023-02-28T13:59:34;93965.75;;;10.28;100.00
11053;BME280;55230;42.602;23.470;2023-02-28T14:05:17;93872.09;;;9.69;100.00
11053;BME280;55230;42.602;23.470;2023-02-28T14:07:47;93923.84;;;10.14;100.00
11053;BME280;55230;42.602;23.470;2023-02-28T14:10:25;93890.59;;;9.92;100.00
11053;BME280;55230;42.602;23.470;2023-02-28T14:12:54;94030.44;;;10.15;100.00
11053;BME280;55230;42.602;23.470;2023-02-28T14:15:41;93960.91;;;10.10;100.00
11053;BME280;55230;42.602;23.470;2023-02-28T14:18:18;93838.69;;;9.04;100.00
11053;BME280;55230;42.602;23.470;2023-02-28T14:20:47;93912.78;;;9.46;100.00
11053;BME280;55230;42.602;23.470;2023-02-28T14:23:32;93896.63;;;9.21;100.00
11053;BME280;55230;42.602;23.470;2023-02-28T14:26:04;93862.56;;;9.02;100.00
11053;BME280;55230;42.602;23.470;2023-02-28T14:28:50;93890.97;;;9.03;100.00
11053;BME280;55230;42.602;23.470;2023-02-28T14:31:24;93723.09;;;7.64;100.00
11053;BME280;55230;42.602;23.470;2023-02-28T14:34:05;93747.94;;;7.52;100.00
11053;BME280;55230;42.602;23.470;2023-02-28T14:36:42;93845.91;;;8.66;100.00
11053;BME280;55230;42.602;23.470;2023-02-28T14:39:13;93794.72;;;8.28;100.00